Terminal Aerodrome Forecast
Issued by NWS

Home | Current Version | Previous Version | Text Only | Print | Product List | Glossary On
Versions: 1 2 3 4 5 6 7 8 9 10 11 12 13 14 15
752
FTAK31 PAJN 041140
TAFAJN
TAF
PAJN 041140Z 0412/0512 08003KT P6SM VCSH SCT040 BKN080
     FM041500 10005KT P6SM VCSH BKN035 OVC060
      TEMPO 0415/0419 -SHRA BKN025
     FM041900 11010KT P6SM -SHRA BKN040 OVC060
     FM050200 09010KT P6SM VCSH BKN035 OVC050
     FM050700 10010G19KT P6SM -RA OVC040
     FM051100 10012G21KT P6SM -RA BKN020 OVC040=

USA.gov is the U.S. government's official web portal to all federal, state and local government web resources and services.